createdAt,value
2023-05-21T06:57:16.499Z,51.21
2023-05-21T06:59:44.476Z,49.75
2023-05-21T07:02:11.620Z,45.10
2023-05-21T07:04:38.851Z,46.34
2023-05-21T07:07:06.079Z,45.81
2023-05-21T07:09:33.591Z,41.27
2023-05-21T07:12:01.323Z,41.82
2023-05-21T07:14:28.905Z,44.09
2023-05-21T07:16:56.699Z,44.13
2023-05-21T07:19:23.976Z,46.09
2023-05-21T07:21:51.212Z,49.05
2023-05-21T07:24:18.424Z,49.03
2023-05-21T07:26:45.840Z,49.12
2023-05-21T07:29:13.282Z,48.21
2023-05-21T07:31:41.048Z,47.91
2023-05-21T07:34:08.166Z,48.14
2023-05-21T07:36:35.393Z,46.77
2023-05-21T07:39:05.084Z,46.04
2023-05-21T07:41:32.972Z,46.32
2023-05-21T07:44:02.900Z,45.35
2023-05-21T07:46:32.246Z,44.82
2023-05-21T07:48:59.431Z,43.51
2023-05-21T07:51:27.203Z,44.01
2023-05-21T07:53:55.525Z,46.98
2023-05-21T07:56:30.776Z,51.05
2023-05-21T07:59:02.505Z,52.39
2023-05-21T08:01:30.855Z,51.42
2023-05-21T08:04:05.919Z,52.35
2023-05-21T08:06:35.295Z,50.24
2023-05-21T08:09:04.823Z,46.32
2023-05-21T08:11:33.170Z,45.01
2023-05-21T08:14:00.731Z,44.39
2023-05-21T08:16:27.873Z,44.91
2023-05-21T08:18:55.088Z,43.99
2023-05-21T08:21:22.826Z,44.51
2023-05-21T08:23:52.639Z,43.08
2023-05-21T08:26:20.489Z,44.08
2023-05-21T08:28:47.888Z,44.65
2023-05-21T08:31:14.971Z,44.55
2023-05-21T08:33:51.257Z,44.13
2023-05-21T08:36:21.372Z,44.37
2023-05-21T08:38:53.865Z,43.27
2023-05-21T08:41:31.782Z,43.58
2023-05-21T08:44:02.190Z,43.90
2023-05-21T08:46:33.969Z,43.71
2023-05-21T08:49:03.195Z,42.37
2023-05-21T08:51:31.452Z,42.28
2023-05-21T08:54:01.845Z,41.95
2023-05-21T08:56:32.113Z,42.46
2023-05-21T08:58:59.631Z,41.22
2023-05-21T09:01:32.068Z,40.84
2023-05-21T09:04:20.739Z,41.01
2023-05-21T09:06:52.025Z,40.45
2023-05-21T09:09:35.145Z,41.41
2023-05-21T09:12:02.859Z,42.04
2023-05-21T09:14:31.814Z,41.61
2023-05-21T09:17:04.246Z,41.66
2023-05-21T09:19:32.404Z,41.78
2023-05-21T09:22:04.428Z,42.31
2023-05-21T09:24:36.044Z,41.99
2023-05-21T09:27:07.187Z,43.69
2023-05-21T09:29:35.610Z,44.02
2023-05-21T09:32:07.658Z,43.44
2023-05-21T09:34:36.867Z,43.56
2023-05-21T09:37:06.557Z,43.32
2023-05-21T09:39:36.082Z,43.46
2023-05-21T09:42:04.638Z,42.98
2023-05-21T09:44:32.692Z,42.45
2023-05-21T09:47:00.395Z,42.51
2023-05-21T09:49:31.352Z,42.50
2023-05-21T09:52:00.284Z,42.36
2023-05-21T09:54:33.054Z,43.09
2023-05-21T09:57:03.035Z,43.65
2023-05-21T09:59:39.151Z,43.64
2023-05-21T10:02:19.115Z,43.17
2023-05-21T10:04:50.149Z,43.29
2023-05-21T10:07:31.317Z,43.03
2023-05-21T10:10:00.951Z,42.78
2023-05-21T10:12:30.854Z,43.81
2023-05-21T10:15:01.650Z,44.12
2023-05-21T10:17:35.561Z,44.58
2023-05-21T10:20:05.240Z,43.96
2023-05-21T10:22:33.282Z,44.07
2023-05-21T10:25:03.652Z,45.10
2023-05-21T10:27:34.184Z,45.40
2023-05-21T10:30:02.346Z,44.95
2023-05-21T10:32:34.164Z,45.39
2023-05-21T10:35:02.774Z,45.88
2023-05-21T10:37:33.144Z,44.74
2023-05-21T10:40:00.455Z,44.87
2023-05-21T10:42:33.983Z,45.44
2023-05-21T10:45:32.600Z,45.36
2023-05-21T10:48:09.572Z,45.93
2023-05-21T10:50:51.427Z,45.21
2023-05-21T10:53:52.124Z,44.44
2023-05-21T10:56:28.817Z,44.97
2023-05-21T10:59:22.496Z,45.59
2023-05-21T11:01:54.360Z,46.46
2023-05-21T11:04:28.031Z,46.65
2023-05-21T11:06:56.460Z,46.03
2023-05-21T11:09:23.649Z,46.49
2023-05-21T11:11:54.404Z,46.24
2023-05-21T11:14:39.686Z,46.53
2023-05-21T11:17:16.538Z,46.21
2023-05-21T11:19:47.397Z,45.56
2023-05-21T11:22:27.776Z,46.28
2023-05-21T11:25:01.876Z,46.80
2023-05-21T11:27:42.814Z,46.84
2023-05-21T11:30:19.815Z,47.07
2023-05-21T11:33:10.812Z,47.15
2023-05-21T11:35:50.068Z,46.33
2023-05-21T11:38:18.307Z,46.94
2023-05-21T11:40:55.152Z,47.32
2023-05-21T11:43:22.869Z,47.05
2023-05-21T11:45:52.975Z,47.76
2023-05-21T11:48:26.816Z,48.34
2023-05-21T11:50:54.781Z,48.13
2023-05-21T11:53:22.117Z,47.12
2023-05-21T11:55:57.271Z,47.14
2023-05-21T11:58:24.287Z,47.32
2023-05-21T12:00:52.102Z,47.14
2023-05-21T12:03:19.944Z,47.59
2023-05-21T12:05:48.670Z,48.60
2023-05-21T12:08:25.397Z,48.79
2023-05-21T12:10:58.808Z,48.84
2023-05-21T12:13:28.237Z,49.59
2023-05-21T12:15:55.654Z,50.62
2023-05-21T12:18:23.692Z,50.38
2023-05-21T12:20:52.331Z,49.75
2023-05-21T12:23:28.218Z,54.03
2023-05-21T12:25:55.417Z,58.04
2023-05-21T12:28:24.933Z,58.71
2023-05-21T12:30:53.673Z,59.48
2023-05-21T12:33:22.466Z,59.60
2023-05-21T12:35:52.448Z,59.36
2023-05-21T12:38:19.640Z,59.76
2023-05-21T12:40:46.733Z,60.52
2023-05-21T12:43:13.798Z,61.21
2023-05-21T12:45:41.326Z,60.76
2023-05-21T12:48:08.943Z,61.53
2023-05-21T12:50:40.366Z,62.37
2023-05-21T12:53:09.560Z,61.64
2023-05-21T12:55:36.563Z,62.91
2023-05-21T12:58:08.034Z,63.01
2023-05-21T13:00:35.627Z,65.36
2023-05-21T13:03:04.561Z,63.42
2023-05-21T13:05:32.130Z,63.60
2023-05-21T13:07:59.115Z,65.70
2023-05-21T13:10:26.102Z,66.40
2023-05-21T13:12:53.090Z,64.78
2023-05-21T13:15:20.494Z,63.08
2023-05-21T13:17:49.241Z,64.49
2023-05-21T13:20:27.910Z,65.85
2023-05-21T13:22:55.028Z,64.24
2023-05-21T13:25:25.054Z,69.90
2023-05-21T13:27:53.087Z,68.02
2023-05-21T13:30:21.484Z,71.11
2023-05-21T13:32:48.961Z,71.05
2023-05-21T13:35:17.590Z,72.16
2023-05-21T13:37:45.601Z,72.24
2023-05-21T13:40:15.342Z,72.48
2023-05-21T13:42:45.160Z,72.49
2023-05-21T13:45:15.275Z,72.46
2023-05-21T13:47:43.091Z,70.66
2023-05-21T13:50:11.553Z,70.21
2023-05-21T13:52:39.249Z,68.87
2023-05-21T13:55:06.776Z,69.61
2023-05-21T13:57:33.894Z,69.13
2023-05-21T14:00:01.393Z,69.49
2023-05-21T14:02:33.007Z,66.63
2023-05-21T14:05:00.065Z,67.56
2023-05-21T14:07:27.082Z,67.06
2023-05-21T14:09:54.381Z,66.62
2023-05-21T14:12:21.845Z,68.66
2023-05-21T14:14:50.040Z,69.71
2023-05-21T14:17:17.082Z,67.35
2023-05-21T14:19:44.109Z,65.04
2023-05-21T14:22:11.333Z,63.97
2023-05-21T14:24:38.396Z,64.64
2023-05-21T14:27:05.539Z,63.54
2023-05-21T14:29:33.325Z,64.01
2023-05-21T14:32:00.429Z,64.18
2023-05-21T14:34:27.457Z,65.77
2023-05-21T14:36:54.488Z,67.34
2023-05-21T14:49:23.447Z,66.38
2023-05-21T14:55:12.305Z,63.97
2023-05-21T14:57:39.335Z,64.50
2023-05-21T15:00:07.015Z,64.64
2023-05-21T15:02:34.421Z,65.82
2023-05-21T15:05:01.602Z,65.38
2023-05-21T15:07:30.625Z,64.88
2023-05-21T15:09:57.666Z,64.63
2023-05-21T15:12:24.670Z,66.39
2023-05-21T15:14:52.888Z,66.75
2023-05-21T15:17:20.006Z,66.33
2023-05-21T15:19:47.047Z,66.42
2023-05-21T15:22:14.128Z,66.06
2023-05-21T15:24:41.363Z,66.42
2023-05-21T15:27:09.109Z,64.13
2023-05-21T15:29:36.545Z,64.60
2023-05-21T15:32:05.315Z,64.84
2023-05-21T15:34:32.834Z,63.93
2023-05-21T15:37:00.101Z,64.30
2023-05-21T15:39:27.356Z,65.13
2023-05-21T15:41:55.033Z,63.03
2023-05-21T15:44:22.272Z,64.47
2023-05-21T15:46:50.057Z,65.82
2023-05-21T15:49:17.790Z,64.63
2023-05-21T15:51:46.542Z,64.98
2023-05-21T15:54:16.558Z,65.35
2023-05-21T15:56:45.664Z,64.73
2023-05-21T15:59:14.074Z,63.15
2023-05-21T16:01:41.188Z,63.74
2023-05-21T16:04:08.359Z,64.16
2023-05-21T16:06:35.482Z,64.18
2023-05-21T16:09:02.515Z,61.34
2023-05-21T16:11:29.767Z,62.64
2023-05-21T16:13:57.008Z,63.67
2023-05-21T16:16:24.865Z,61.37
2023-05-21T16:18:52.067Z,57.65
2023-05-21T16:21:19.117Z,57.94
2023-05-21T16:23:46.144Z,56.88
2023-05-21T16:26:13.224Z,56.18
2023-05-21T16:28:40.407Z,55.96
2023-05-21T16:31:08.649Z,54.57
2023-05-21T16:33:35.763Z,54.06
2023-05-21T16:36:02.780Z,54.45
2023-05-21T16:38:29.796Z,55.23
2023-05-21T16:40:57.073Z,55.58
2023-05-21T16:43:24.112Z,56.13
2023-05-21T16:45:52.985Z,56.82
2023-05-21T16:48:20.092Z,57.74
2023-05-21T16:50:47.217Z,58.27
2023-05-21T16:53:14.438Z,58.52
2023-05-21T16:55:43.340Z,58.02
2023-05-21T16:58:10.998Z,57.40
2023-05-21T17:00:38.059Z,57.72
2023-05-21T17:03:05.248Z,56.92
2023-05-21T17:05:32.355Z,56.64
2023-05-21T17:07:59.583Z,57.39
2023-05-21T17:10:26.708Z,57.91
2023-05-21T17:12:58.357Z,56.00
2023-05-21T17:15:27.428Z,54.48
2023-05-21T17:17:54.450Z,53.63
2023-05-21T17:20:21.473Z,53.23
2023-05-21T17:22:48.475Z,52.78
2023-05-21T17:25:15.605Z,52.73
2023-05-21T17:27:42.658Z,51.92
2023-05-21T17:30:10.331Z,52.07
2023-05-21T17:32:37.402Z,50.99
2023-05-21T17:35:04.659Z,51.41
2023-05-21T17:37:32.284Z,51.45
2023-05-21T17:39:59.354Z,51.21
2023-05-21T17:42:26.431Z,51.18
2023-05-21T17:44:53.855Z,51.05
2023-05-21T17:47:20.919Z,50.48
2023-05-21T17:49:47.945Z,50.91
2023-05-21T17:52:14.932Z,51.34
2023-05-21T17:54:43.729Z,51.36
2023-05-21T17:57:10.820Z,51.08
2023-05-21T17:59:40.380Z,51.45
2023-05-21T18:02:07.786Z,51.56
2023-05-21T18:04:35.058Z,51.73
2023-05-21T18:07:02.128Z,51.61
2023-05-21T18:09:29.143Z,51.96
2023-05-21T18:11:56.222Z,52.43
2023-05-21T18:14:23.201Z,51.92
2023-05-21T18:16:50.307Z,51.80
2023-05-21T18:19:17.438Z,52.28
2023-05-21T18:21:44.711Z,52.56
2023-05-21T18:24:11.730Z,51.78
2023-05-21T18:26:38.729Z,52.07
2023-05-21T18:29:05.708Z,52.78
2023-05-21T18:31:32.751Z,52.65
2023-05-21T18:33:59.765Z,51.95
2023-05-21T18:36:26.795Z,52.60
2023-05-21T18:38:54.091Z,53.70
2023-05-21T18:41:22.429Z,53.32
2023-05-21T18:43:49.584Z,52.22
2023-05-21T18:46:16.526Z,53.30
2023-05-21T18:48:43.505Z,52.48
2023-05-21T18:51:10.657Z,53.08
2023-05-21T18:53:38.642Z,52.47
2023-05-21T18:56:06.929Z,52.59
2023-05-21T18:58:33.960Z,52.04
2023-05-21T19:01:01.109Z,52.27
2023-05-21T19:03:28.105Z,51.51
2023-05-21T19:05:55.149Z,51.72
2023-05-21T19:08:22.137Z,51.14
2023-05-21T19:10:49.586Z,50.96
2023-05-21T19:13:16.652Z,50.71
2023-05-21T19:15:46.980Z,50.73
2023-05-21T19:18:14.702Z,50.75
2023-05-21T19:20:41.677Z,50.20
2023-05-21T19:23:08.796Z,49.84
2023-05-21T19:25:35.816Z,50.17
2023-05-21T19:28:02.795Z,50.41
2023-05-21T19:30:29.887Z,50.12
2023-05-21T19:32:57.005Z,50.33
2023-05-21T19:35:24.022Z,50.62
2023-05-21T19:37:51.222Z,50.72
2023-05-21T19:40:18.205Z,50.96
2023-05-21T19:42:45.152Z,51.21
2023-05-21T19:45:13.547Z,51.67
2023-05-21T19:47:41.176Z,52.39
2023-05-21T19:50:09.659Z,52.20
2023-05-21T19:52:37.712Z,52.62
2023-05-21T19:55:06.339Z,52.77
2023-05-21T19:57:34.749Z,52.61
2023-05-21T20:00:02.022Z,53.84
2023-05-21T20:02:41.161Z,53.71
2023-05-21T20:05:09.107Z,53.36
2023-05-21T20:07:36.067Z,53.27
2023-05-21T20:10:03.140Z,53.61
2023-05-21T20:12:32.696Z,53.44
2023-05-21T20:15:00.959Z,52.87
2023-05-21T20:17:30.748Z,52.75
2023-05-21T20:19:59.101Z,53.17
2023-05-21T20:22:26.125Z,53.56
2023-05-21T20:24:53.057Z,54.61
2023-05-21T20:27:20.351Z,54.78
2023-05-21T20:29:47.415Z,55.14
2023-05-21T20:32:14.433Z,56.15
2023-05-21T20:34:54.426Z,56.87
2023-05-21T20:37:32.301Z,57.61
2023-05-21T20:40:00.038Z,58.00
2023-05-21T20:42:34.805Z,58.00
2023-05-21T20:45:03.188Z,58.46
2023-05-21T20:47:34.277Z,58.66
2023-05-21T20:50:03.111Z,58.46
2023-05-21T20:52:32.298Z,59.03
2023-05-21T20:54:59.788Z,58.99
2023-05-21T20:57:28.307Z,59.05
2023-05-21T20:59:56.233Z,57.97
2023-05-21T21:02:23.477Z,58.64
2023-05-21T21:04:50.832Z,55.23
2023-05-21T21:07:18.258Z,56.80
2023-05-21T21:09:46.749Z,56.15
2023-05-21T21:12:25.286Z,56.01
2023-05-21T21:14:53.526Z,55.04
2023-05-21T21:17:20.767Z,56.00
2023-05-21T21:19:47.771Z,56.90
2023-05-21T21:22:16.208Z,57.18
2023-05-21T21:24:43.356Z,57.75
2023-05-21T21:27:10.447Z,57.50
2023-05-21T21:29:37.679Z,57.14
2023-05-21T21:32:05.054Z,58.91
2023-05-21T21:34:32.014Z,58.97
2023-05-21T21:36:58.988Z,58.36
2023-05-21T21:39:26.866Z,58.59
2023-05-21T21:41:53.990Z,53.95
2023-05-21T21:44:21.332Z,50.09
2023-05-21T21:46:48.451Z,51.57
2023-05-21T21:49:17.457Z,49.55
2023-05-21T21:51:45.293Z,48.67
2023-05-21T21:54:12.526Z,48.06
2023-05-21T21:56:39.545Z,46.97
2023-05-21T21:59:06.480Z,46.14
2023-05-21T22:01:33.664Z,46.29
2023-05-21T22:04:00.769Z,46.71
2023-05-21T22:06:28.677Z,46.92
2023-05-21T22:08:55.811Z,45.95
2023-05-21T22:11:22.961Z,45.48
2023-05-21T22:13:50.001Z,46.24
2023-05-21T22:16:17.032Z,46.07
2023-05-21T22:18:44.114Z,47.00
2023-05-21T22:21:14.301Z,46.47
2023-05-21T22:23:41.556Z,46.77
2023-05-21T22:26:27.205Z,47.15
2023-05-21T22:28:54.148Z,47.52
2023-05-21T22:31:21.286Z,46.74
2023-05-21T22:33:48.228Z,47.74
2023-05-21T22:36:15.187Z,46.74
2023-05-21T22:38:43.543Z,45.65
2023-05-21T22:41:11.137Z,45.31
2023-05-21T22:43:38.215Z,45.79
2023-05-21T22:46:05.455Z,46.16
2023-05-21T22:48:34.390Z,46.55
2023-05-21T22:51:02.010Z,45.89
2023-05-21T22:53:29.101Z,46.49
2023-05-21T22:55:56.097Z,46.12
2023-05-21T22:58:23.119Z,46.22
2023-05-21T23:00:50.073Z,45.91
2023-05-21T23:03:17.530Z,46.68
2023-05-21T23:05:45.207Z,46.30
2023-05-21T23:08:12.646Z,46.92
2023-05-21T23:10:40.063Z,47.20
2023-05-21T23:13:07.270Z,47.50
2023-05-21T23:15:34.349Z,46.96
2023-05-21T23:18:01.421Z,47.19
2023-05-21T23:20:28.684Z,46.96
2023-05-21T23:22:55.644Z,48.25
2023-05-21T23:25:22.633Z,47.95
2023-05-21T23:27:49.644Z,48.35
2023-05-21T23:30:16.725Z,49.43
2023-05-21T23:32:43.717Z,49.39
2023-05-21T23:35:10.768Z,50.20
2023-05-21T23:37:37.685Z,50.56
2023-05-21T23:40:05.379Z,51.16
2023-05-21T23:42:32.449Z,51.19
2023-05-21T23:44:59.376Z,51.55
2023-05-21T23:47:26.391Z,51.65
2023-05-21T23:49:53.373Z,52.22
2023-05-21T23:52:20.501Z,51.97
2023-05-21T23:54:47.582Z,51.77
2023-05-21T23:57:14.801Z,51.74
2023-05-21T23:59:41.783Z,51.60
